Terminal Aerodrome Forecast
Issued by NWS

Home | Current Version | Previous Version | Text Only | Print | Product List | Glossary On
Versions: 1 2 3 4 5 6 7 8 9 10 11 12 13 14
000
FTUS43 KICT 182337
TAFHUT
TAF
KHUT 182337Z 1900/1924 20008KT P6SM SCT250
     FM190700 24007KT P6SM BKN120 OVC250
     FM191000 30007KT P6SM BKN120 BKN250
     FM191500 33010KT P6SM SCT100 BKN250=

USA.gov is the U.S. government's official web portal to all federal, state and local government web resources and services.